createdAt,value
2018-01-08T00:00:39.954Z,1053.38
2018-01-08T00:01:39.935Z,1053.39
2018-01-08T00:02:39.921Z,1053.45
2018-01-08T00:03:39.900Z,1053.49
2018-01-08T00:04:39.883Z,1053.42
2018-01-08T00:05:39.865Z,1053.43
2018-01-08T00:06:39.847Z,1053.46
2018-01-08T00:07:39.832Z,1053.51
2018-01-08T00:08:39.812Z,1053.47
2018-01-08T00:09:39.794Z,1053.45
2018-01-08T00:10:39.777Z,1053.46
2018-01-08T00:11:39.758Z,1053.46
2018-01-08T00:12:39.741Z,1053.44
2018-01-08T00:13:39.722Z,1053.41
2018-01-08T00:14:39.712Z,1053.41
2018-01-08T00:15:39.687Z,1053.45
2018-01-08T00:16:39.671Z,1053.43
2018-01-08T00:17:39.651Z,1053.42
2018-01-08T00:18:39.640Z,1053.47
2018-01-08T00:19:39.618Z,1053.47
2018-01-08T00:20:39.614Z,1053.49
2018-01-08T00:21:39.580Z,1053.48
2018-01-08T00:22:39.563Z,1053.44
2018-01-08T00:23:39.546Z,1053.48
2018-01-08T00:24:39.527Z,1053.47
2018-01-08T00:25:39.513Z,1053.46
2018-01-08T00:26:39.493Z,1053.51
2018-01-08T00:27:39.477Z,1053.47
2018-01-08T00:28:39.459Z,1053.46
2018-01-08T00:29:39.441Z,1053.47
2018-01-08T00:30:39.420Z,1053.48
2018-01-08T00:31:39.402Z,1053.44
2018-01-08T00:32:39.385Z,1053.48
2018-01-08T00:33:39.370Z,1053.46
2018-01-08T00:34:39.354Z,1053.47
2018-01-08T00:35:39.331Z,1053.51
2018-01-08T00:36:39.318Z,1053.42
2018-01-08T00:37:39.297Z,1053.44
2018-01-08T00:38:39.278Z,1053.4
2018-01-08T00:39:39.263Z,1053.38
2018-01-08T00:40:39.243Z,1053.35
2018-01-08T00:41:39.228Z,1053.4
2018-01-08T00:42:39.207Z,1053.42
2018-01-08T00:43:39.192Z,1053.37
2018-01-08T00:44:39.176Z,1053.41
2018-01-08T00:45:39.156Z,1053.4
2018-01-08T00:46:39.136Z,1053.43
2018-01-08T00:47:39.121Z,1053.43
2018-01-08T00:48:39.102Z,1053.49
2018-01-08T00:49:39.082Z,1053.49
2018-01-08T00:50:39.066Z,1053.42
2018-01-08T00:51:39.047Z,1053.47
2018-01-08T00:52:39.028Z,1053.43
2018-01-08T00:53:39.014Z,1053.46
2018-01-08T00:54:38.997Z,1053.47
2018-01-08T00:55:38.978Z,1053.42
2018-01-08T00:56:38.961Z,1053.37
2018-01-08T00:57:38.943Z,1053.33
2018-01-08T00:58:38.925Z,1053.38
2018-01-08T00:59:38.905Z,1053.36
2018-01-08T01:00:38.890Z,1053.34
2018-01-08T01:01:38.869Z,1053.41
2018-01-08T01:02:38.852Z,1053.37
2018-01-08T01:03:38.836Z,1053.35
2018-01-08T01:04:38.816Z,1053.36
2018-01-08T01:05:38.798Z,1053.36
2018-01-08T01:06:38.783Z,1053.38
2018-01-08T01:07:38.762Z,1053.35
2018-01-08T01:08:38.757Z,1053.34
2018-01-08T01:09:38.726Z,1053.31
2018-01-08T01:10:38.709Z,1053.29
2018-01-08T01:11:38.693Z,1053.43
2018-01-08T01:12:38.674Z,1053.39
2018-01-08T01:13:38.656Z,1053.3
2018-01-08T01:14:38.637Z,1053.21
2018-01-08T01:15:38.623Z,1053.26
2018-01-08T01:16:38.602Z,1053.32
2018-01-08T01:17:38.588Z,1053.28
2018-01-08T01:18:38.568Z,1053.26
2018-01-08T01:19:38.555Z,1053.26
2018-01-08T01:20:38.531Z,1053.26
2018-01-08T01:21:38.514Z,1053.23
2018-01-08T01:22:38.500Z,1053.19
2018-01-08T01:23:38.485Z,1053.29
2018-01-08T01:24:38.466Z,1053.32
2018-01-08T01:25:38.443Z,1053.21
2018-01-08T01:26:38.427Z,1053.21
2018-01-08T01:27:38.408Z,1053.23
2018-01-08T01:28:38.393Z,1053.19
2018-01-08T01:29:38.375Z,1053.21
2018-01-08T01:30:38.357Z,1053.2
2018-01-08T01:31:38.341Z,1053.2
2018-01-08T01:32:38.318Z,1053.16
2018-01-08T01:33:38.304Z,1053.16
2018-01-08T01:34:38.285Z,1053.19
2018-01-08T01:35:38.276Z,1053.2
2018-01-08T01:36:38.248Z,1053.22
2018-01-08T01:37:38.230Z,1053.25
2018-01-08T01:38:38.212Z,1053.27
2018-01-08T01:39:38.199Z,1053.2
2018-01-08T01:40:38.179Z,1053.26
2018-01-08T01:41:38.160Z,1053.21
2018-01-08T01:42:38.146Z,1053.21
2018-01-08T01:43:38.125Z,1053.18
2018-01-08T01:44:38.105Z,1053.16
2018-01-08T01:45:38.090Z,1053.16
2018-01-08T01:46:38.070Z,1053.21
2018-01-08T01:47:38.052Z,1053.19
2018-01-08T01:48:38.034Z,1053.23
2018-01-08T01:49:38.016Z,1053.18
2018-01-08T01:50:37.998Z,1053.23
2018-01-08T01:51:37.980Z,1053.21
2018-01-08T01:52:37.965Z,1053.18
2018-01-08T01:53:37.945Z,1053.24
2018-01-08T01:54:37.927Z,1053.22
2018-01-08T01:55:37.910Z,1053.27
2018-01-08T01:56:37.892Z,1053.34
2018-01-08T01:57:37.874Z,1053.31
2018-01-08T01:58:37.855Z,1053.32
2018-01-08T01:59:37.838Z,1053.29
2018-01-08T02:00:37.823Z,1053.37
2018-01-08T02:01:37.806Z,1053.3
2018-01-08T02:02:37.788Z,1053.34
2018-01-08T02:03:37.766Z,1053.35
2018-01-08T02:04:37.752Z,1053.33
2018-01-08T02:05:37.730Z,1053.37
2018-01-08T02:06:37.713Z,1053.39
2018-01-08T02:07:37.695Z,1053.36
2018-01-08T02:08:37.680Z,1053.41
2018-01-08T02:09:37.660Z,1053.42
2018-01-08T02:10:37.643Z,1053.4
2018-01-08T02:11:37.625Z,1053.44
2018-01-08T02:12:37.609Z,1053.42
2018-01-08T02:13:37.591Z,1053.44
2018-01-08T02:14:37.570Z,1053.45
2018-01-08T02:15:37.552Z,1053.47
2018-01-08T02:16:37.533Z,1053.47
2018-01-08T02:17:37.515Z,1053.42
2018-01-08T02:18:37.497Z,1053.43
2018-01-08T02:19:37.481Z,1053.43
2018-01-08T02:20:37.461Z,1053.44
2018-01-08T02:21:37.449Z,1053.42
2018-01-08T02:22:37.429Z,1053.51
2018-01-08T02:23:37.408Z,1053.45
2018-01-08T02:24:37.394Z,1053.45
2018-01-08T02:25:37.375Z,1053.45
2018-01-08T02:26:37.354Z,1053.43
2018-01-08T02:27:37.340Z,1053.44
2018-01-08T02:28:37.320Z,1053.48
2018-01-08T02:29:37.300Z,1053.43
2018-01-08T02:30:37.285Z,1053.45
2018-01-08T02:31:37.266Z,1053.52
2018-01-08T02:32:37.248Z,1053.46
2018-01-08T02:33:37.231Z,1053.46
2018-01-08T02:34:37.211Z,1053.5
2018-01-08T02:35:37.194Z,1053.46
2018-01-08T02:36:37.176Z,1053.46
2018-01-08T02:37:37.160Z,1053.49
2018-01-08T02:38:37.140Z,1053.44
2018-01-08T02:39:37.120Z,1053.41
2018-01-08T02:40:37.105Z,1053.48
2018-01-08T02:41:37.090Z,1053.39
2018-01-08T02:42:37.066Z,1053.33
2018-01-08T02:43:37.049Z,1053.39
2018-01-08T02:44:37.035Z,1053.37
2018-01-08T02:45:37.012Z,1053.35
2018-01-08T02:46:36.996Z,1053.39
2018-01-08T02:47:36.978Z,1053.35
2018-01-08T02:48:36.957Z,1053.31
2018-01-08T02:49:36.941Z,1053.28
2018-01-08T02:50:36.924Z,1053.25
2018-01-08T02:51:36.906Z,1053.24
2018-01-08T02:52:36.888Z,1053.21
2018-01-08T02:53:36.870Z,1053.24
2018-01-08T02:54:36.849Z,1053.33
2018-01-08T02:55:36.832Z,1053.21
2018-01-08T02:56:36.813Z,1053.18
2018-01-08T02:57:36.798Z,1053.2
2018-01-08T02:58:36.780Z,1053.21
2018-01-08T02:59:36.763Z,1053.23
2018-01-08T03:00:36.750Z,1053.27
2018-01-08T03:01:36.727Z,1053.16
2018-01-08T03:02:36.706Z,1053.21
2018-01-08T03:03:36.691Z,1053.15
2018-01-08T03:04:36.672Z,1053.19
2018-01-08T03:05:36.654Z,1053.15
2018-01-08T03:06:36.634Z,1053.17
2018-01-08T03:07:36.615Z,1053.18
2018-01-08T03:08:36.600Z,1053.24
2018-01-08T03:09:36.581Z,1053.26
2018-01-08T03:10:36.565Z,1053.26
2018-01-08T03:11:36.543Z,1053.32
2018-01-08T03:12:36.528Z,1053.36
2018-01-08T03:13:36.510Z,1053.36
2018-01-08T03:14:36.490Z,1053.34
2018-01-08T03:15:36.471Z,1053.36
2018-01-08T03:16:36.453Z,1053.34
2018-01-08T03:17:36.435Z,1053.4
2018-01-08T03:18:36.416Z,1053.38
2018-01-08T03:19:36.399Z,1053.4
2018-01-08T03:20:36.383Z,1053.44
2018-01-08T03:21:36.366Z,1053.46
2018-01-08T03:22:36.344Z,1053.46
2018-01-08T03:23:36.327Z,1053.42
2018-01-08T03:24:36.318Z,1053.44
2018-01-08T03:25:36.292Z,1053.37
2018-01-08T03:26:36.272Z,1053.41
2018-01-08T03:27:36.257Z,1053.39
2018-01-08T03:28:36.237Z,1053.45
2018-01-08T03:29:36.218Z,1053.45
2018-01-08T03:30:36.204Z,1053.52
2018-01-08T03:31:36.182Z,1053.57
2018-01-08T03:32:36.165Z,1053.53
2018-01-08T03:33:36.146Z,1053.53
2018-01-08T03:34:36.128Z,1053.53
2018-01-08T03:35:36.110Z,1053.56
2018-01-08T03:36:36.094Z,1053.6
2018-01-08T03:37:36.077Z,1053.56
2018-01-08T03:38:36.055Z,1053.64
2018-01-08T03:39:36.041Z,1053.59
2018-01-08T03:40:36.019Z,1053.6
2018-01-08T03:41:36.001Z,1053.63
2018-01-08T03:42:35.983Z,1053.6
2018-01-08T03:43:35.965Z,1053.59
2018-01-08T03:44:35.946Z,1053.6
2018-01-08T03:45:35.935Z,1053.62
2018-01-08T03:46:35.912Z,1053.69
2018-01-08T03:47:35.894Z,1053.6
2018-01-08T03:48:35.877Z,1053.55
2018-01-08T03:49:35.857Z,1053.58
2018-01-08T03:50:35.842Z,1053.57
2018-01-08T03:51:35.819Z,1053.61
2018-01-08T03:52:35.803Z,1053.61
2018-01-08T03:53:35.784Z,1053.62
2018-01-08T03:54:35.767Z,1053.63
2018-01-08T03:55:35.751Z,1053.62
2018-01-08T03:56:35.732Z,1053.63
2018-01-08T03:57:35.715Z,1053.64
2018-01-08T03:58:35.694Z,1053.62
2018-01-08T03:59:35.675Z,1053.59
2018-01-08T04:00:35.657Z,1053.58
2018-01-08T04:01:35.642Z,1053.56
2018-01-08T04:02:35.620Z,1053.56
2018-01-08T04:03:35.606Z,1053.54
2018-01-08T04:04:35.595Z,1053.57
2018-01-08T04:05:35.566Z,1053.56
2018-01-08T04:06:35.548Z,1053.52
2018-01-08T04:07:35.530Z,1053.5
2018-01-08T04:08:35.515Z,1053.56
2018-01-08T04:09:35.494Z,1053.54
2018-01-08T04:10:35.475Z,1053.56
2018-01-08T04:11:35.457Z,1053.52
2018-01-08T04:12:35.439Z,1053.52
2018-01-08T04:13:35.424Z,1053.52
2018-01-08T04:14:35.403Z,1053.53
2018-01-08T04:15:35.387Z,1053.57
2018-01-08T04:16:35.366Z,1053.56
2018-01-08T04:17:35.347Z,1053.54
2018-01-08T04:18:35.329Z,1053.51
2018-01-08T04:19:35.312Z,1053.47
2018-01-08T04:20:35.294Z,1053.52
2018-01-08T04:21:35.278Z,1053.5
2018-01-08T04:22:35.257Z,1053.5
2018-01-08T04:23:35.242Z,1053.53
2018-01-08T04:24:35.228Z,1053.54
2018-01-08T04:25:35.207Z,1053.55
2018-01-08T04:26:35.188Z,1053.61
2018-01-08T04:27:35.171Z,1053.62
2018-01-08T04:28:35.162Z,1053.59
2018-01-08T04:29:35.136Z,1053.62
2018-01-08T04:30:35.113Z,1053.58
2018-01-08T04:31:35.097Z,1053.6
2018-01-08T04:32:35.076Z,1053.61
2018-01-08T04:33:35.059Z,1053.62
2018-01-08T04:34:35.041Z,1053.6
2018-01-08T04:35:35.022Z,1053.65
2018-01-08T04:36:35.007Z,1053.67
2018-01-08T04:37:34.988Z,1053.67
2018-01-08T04:38:34.969Z,1053.74
2018-01-08T04:39:34.951Z,1053.69
2018-01-08T04:40:34.930Z,1053.71
2018-01-08T04:41:34.913Z,1053.71
2018-01-08T04:42:34.894Z,1053.76
2018-01-08T04:43:34.879Z,1053.71
2018-01-08T04:44:34.858Z,1053.69
2018-01-08T04:45:34.844Z,1053.73
2018-01-08T04:46:34.822Z,1053.73
2018-01-08T04:47:34.803Z,1053.8
2018-01-08T04:48:34.791Z,1053.8
2018-01-08T04:49:34.768Z,1053.85
2018-01-08T04:50:34.751Z,1053.86
2018-01-08T04:51:34.730Z,1053.93
2018-01-08T04:52:34.715Z,1053.95
2018-01-08T04:53:34.700Z,1053.97
2018-01-08T04:54:34.680Z,1054.01
2018-01-08T04:55:34.658Z,1054.03
2018-01-08T04:56:34.640Z,1054.12
2018-01-08T04:57:34.621Z,1054.11
2018-01-08T04:58:34.602Z,1054.11
2018-01-08T04:59:34.588Z,1054.08
2018-01-08T05:00:34.567Z,1054.17
2018-01-08T05:01:34.554Z,1054.17
2018-01-08T05:02:34.529Z,1054.16
2018-01-08T05:03:34.511Z,1054.17
2018-01-08T05:04:34.495Z,1054.19
2018-01-08T05:05:34.474Z,1054.22
2018-01-08T05:06:34.456Z,1054.22
2018-01-08T05:07:34.439Z,1054.22
2018-01-08T05:08:34.419Z,1054.21
2018-01-08T05:09:34.410Z,1054.26
2018-01-08T05:10:34.388Z,1054.29
2018-01-08T05:11:34.364Z,1054.27
2018-01-08T05:12:34.345Z,1054.28
2018-01-08T05:13:34.328Z,1054.29
2018-01-08T05:14:34.310Z,1054.33
2018-01-08T05:15:34.293Z,1054.42
2018-01-08T05:16:34.272Z,1054.38
2018-01-08T05:17:34.256Z,1054.36
2018-01-08T05:18:34.239Z,1054.38
2018-01-08T05:19:34.217Z,1054.41
2018-01-08T05:20:34.198Z,1054.41
2018-01-08T05:21:34.185Z,1054.45
2018-01-08T05:22:34.165Z,1054.49
2018-01-08T05:23:34.143Z,1054.5
2018-01-08T05:24:34.128Z,1054.61
2018-01-08T05:25:34.109Z,1054.53
2018-01-08T05:26:34.087Z,1054.5
2018-01-08T05:27:34.069Z,1054.53
2018-01-08T05:28:34.051Z,1054.53
2018-01-08T05:29:34.033Z,1054.52
2018-01-08T05:30:34.017Z,1054.61
2018-01-08T05:31:33.995Z,1054.58
2018-01-08T05:32:33.980Z,1054.59
2018-01-08T05:33:33.959Z,1054.59
2018-01-08T05:34:33.940Z,1054.6
2018-01-08T05:35:33.921Z,1054.64
2018-01-08T05:36:33.903Z,1054.6
2018-01-08T05:37:33.887Z,1054.59
2018-01-08T05:38:33.871Z,1054.64
2018-01-08T05:39:33.847Z,1054.62
2018-01-08T05:40:33.830Z,1054.62
2018-01-08T05:41:33.809Z,1054.62
2018-01-08T05:42:33.791Z,1054.67
2018-01-08T05:43:33.773Z,1054.64
2018-01-08T05:44:33.755Z,1054.65
2018-01-08T05:45:33.736Z,1054.67
2018-01-08T05:46:33.717Z,1054.64
2018-01-08T05:47:33.702Z,1054.61
2018-01-08T05:48:33.680Z,1054.62
2018-01-08T05:49:33.663Z,1054.67
2018-01-08T05:50:33.646Z,1054.62
2018-01-08T05:51:33.625Z,1054.71
2018-01-08T05:52:33.605Z,1054.69
2018-01-08T05:53:33.590Z,1054.72
2018-01-08T05:54:33.574Z,1054.76
2018-01-08T05:55:33.552Z,1054.71
2018-01-08T05:56:33.531Z,1054.76
2018-01-08T05:57:33.516Z,1054.77
2018-01-08T05:58:33.498Z,1054.74
2018-01-08T05:59:33.478Z,1054.76
2018-01-08T06:00:33.457Z,1054.82
2018-01-08T06:01:33.441Z,1054.82
2018-01-08T06:02:33.420Z,1054.84
2018-01-08T06:03:33.405Z,1054.81
2018-01-08T06:04:33.386Z,1054.85
2018-01-08T06:05:33.364Z,1054.79
2018-01-08T06:06:33.346Z,1054.81
2018-01-08T06:07:33.330Z,1054.79
2018-01-08T06:08:33.309Z,1054.8
2018-01-08T06:09:33.299Z,1054.82
2018-01-08T06:10:33.271Z,1054.82
2018-01-08T06:11:33.256Z,1054.85
2018-01-08T06:12:33.235Z,1054.85
2018-01-08T06:13:33.220Z,1054.8
2018-01-08T06:14:33.200Z,1054.86
2018-01-08T06:15:33.179Z,1054.87
2018-01-08T06:16:33.160Z,1054.85
2018-01-08T06:17:33.141Z,1054.87
2018-01-08T06:18:33.122Z,1054.86
2018-01-08T06:19:33.108Z,1054.89
2018-01-08T06:20:33.088Z,1054.84
2018-01-08T06:21:33.066Z,1054.83
2018-01-08T06:22:33.048Z,1054.87
2018-01-08T06:23:33.031Z,1054.84
2018-01-08T06:24:33.013Z,1054.82
2018-01-08T06:25:32.992Z,1054.83
2018-01-08T06:26:32.976Z,1054.83
2018-01-08T06:27:32.955Z,1054.88
2018-01-08T06:28:32.939Z,1054.86
2018-01-08T06:29:32.917Z,1054.83
2018-01-08T06:30:32.902Z,1054.87
2018-01-08T06:31:32.885Z,1054.88
2018-01-08T06:32:32.863Z,1054.89
2018-01-08T06:33:32.845Z,1054.9
2018-01-08T06:34:32.824Z,1054.89
2018-01-08T06:35:32.806Z,1054.84
2018-01-08T06:36:32.786Z,1054.94
2018-01-08T06:37:32.769Z,1054.88
2018-01-08T06:38:32.752Z,1054.9
2018-01-08T06:39:32.730Z,1054.88
2018-01-08T06:40:32.712Z,1054.89
2018-01-08T06:41:32.696Z,1054.88
2018-01-08T06:42:32.675Z,1054.87
2018-01-08T06:43:32.659Z,1054.89
2018-01-08T06:44:32.643Z,1054.87
2018-01-08T06:45:32.620Z,1054.86
2018-01-08T06:46:32.601Z,1054.91
2018-01-08T06:47:32.581Z,1054.91
2018-01-08T06:48:32.568Z,1054.87
2018-01-08T06:49:32.548Z,1054.86
2018-01-08T06:50:32.527Z,1054.84
2018-01-08T06:51:32.508Z,1054.84
2018-01-08T06:52:32.491Z,1054.85
2018-01-08T06:53:32.472Z,1054.81
2018-01-08T06:54:32.452Z,1054.77
2018-01-08T06:55:32.433Z,1054.75
2018-01-08T06:56:32.415Z,1054.78
2018-01-08T06:57:32.400Z,1054.8
2018-01-08T06:58:32.378Z,1054.84
2018-01-08T06:59:32.360Z,1054.83
2018-01-08T07:00:32.344Z,1054.83
2018-01-08T07:01:32.322Z,1054.83
2018-01-08T07:02:32.304Z,1054.85
2018-01-08T07:03:32.287Z,1054.84
2018-01-08T07:04:32.270Z,1054.87
2018-01-08T07:05:32.248Z,1054.85
2018-01-08T07:06:32.234Z,1054.92
2018-01-08T07:07:32.217Z,1054.92
2018-01-08T07:08:32.197Z,1054.93
2018-01-08T07:09:32.177Z,1054.91
2018-01-08T07:10:32.158Z,1054.91
2018-01-08T07:11:32.138Z,1054.93
2018-01-08T07:12:32.121Z,1054.92
2018-01-08T07:13:32.103Z,1054.9
2018-01-08T07:14:32.086Z,1054.88
2018-01-08T07:15:32.064Z,1054.86
2018-01-08T07:16:32.050Z,1054.81
2018-01-08T07:17:32.030Z,1054.84
2018-01-08T07:18:32.008Z,1054.83
2018-01-08T07:19:31.993Z,1054.88
2018-01-08T07:20:32.001Z,1054.83
2018-01-08T07:21:31.955Z,1054.85
2018-01-08T07:22:31.933Z,1054.73
2018-01-08T07:23:31.921Z,1054.73
2018-01-08T07:24:31.899Z,1054.74
2018-01-08T07:25:31.878Z,1054.78
2018-01-08T07:26:31.863Z,1054.81
2018-01-08T07:27:31.844Z,1054.84
2018-01-08T07:28:31.826Z,1054.84
2018-01-08T07:29:31.806Z,1054.84
2018-01-08T07:30:31.790Z,1054.84
2018-01-08T07:31:31.775Z,1054.82
2018-01-08T07:32:31.749Z,1054.85
2018-01-08T07:33:31.730Z,1054.87
2018-01-08T07:34:31.758Z,1054.87
2018-01-08T07:35:31.693Z,1054.83
2018-01-08T07:36:31.674Z,1054.82
2018-01-08T07:37:31.660Z,1054.75
2018-01-08T07:38:31.642Z,1054.8
2018-01-08T07:39:31.620Z,1054.71
2018-01-08T07:40:31.601Z,1054.69
2018-01-08T07:41:31.584Z,1054.71
2018-01-08T07:42:31.566Z,1054.72
2018-01-08T07:43:31.550Z,1054.71
2018-01-08T07:44:31.529Z,1054.71
2018-01-08T07:45:31.513Z,1054.63
2018-01-08T07:46:31.495Z,1054.62
2018-01-08T07:47:31.475Z,1054.6
2018-01-08T07:48:31.458Z,1054.63
2018-01-08T07:49:31.439Z,1054.62
2018-01-08T07:50:31.417Z,1054.62
2018-01-08T07:51:31.404Z,1054.71
2018-01-08T07:52:31.382Z,1054.66
2018-01-08T07:53:31.369Z,1054.71
2018-01-08T07:54:31.347Z,1054.7
2018-01-08T07:55:31.325Z,1054.73
2018-01-08T07:56:31.309Z,1054.76
2018-01-08T07:57:31.289Z,1054.73
2018-01-08T07:58:31.273Z,1054.74
2018-01-08T07:59:31.252Z,1054.75
2018-01-08T08:00:31.240Z,1054.77
2018-01-08T08:01:31.215Z,1054.7
2018-01-08T08:02:31.197Z,1054.75
2018-01-08T08:03:31.178Z,1054.76
2018-01-08T08:04:31.161Z,1054.77
2018-01-08T08:05:31.145Z,1054.8
2018-01-08T08:06:31.125Z,1054.72
2018-01-08T08:07:31.116Z,1054.71
2018-01-08T08:08:31.086Z,1054.68
2018-01-08T08:09:31.067Z,1054.69
2018-01-08T08:10:31.051Z,1054.72
2018-01-08T08:11:31.031Z,1054.68
2018-01-08T08:12:31.015Z,1054.75
2018-01-08T08:13:30.997Z,1054.74
2018-01-08T08:14:30.975Z,1054.65
2018-01-08T08:15:30.960Z,1054.67
2018-01-08T08:16:30.943Z,1054.64
2018-01-08T08:17:30.921Z,1054.61
2018-01-08T08:18:30.909Z,1054.63
2018-01-08T08:19:30.886Z,1054.65
2018-01-08T08:20:30.869Z,1054.66
2018-01-08T08:21:30.864Z,1054.69
2018-01-08T08:22:30.829Z,1054.64
2018-01-08T08:23:30.814Z,1054.65
2018-01-08T08:24:30.793Z,1054.6
2018-01-08T08:25:30.779Z,1054.54
2018-01-08T08:26:30.759Z,1054.49
2018-01-08T08:27:30.739Z,1054.44
2018-01-08T08:28:30.731Z,1054.42
2018-01-08T08:29:30.701Z,1054.45
2018-01-08T08:30:30.687Z,1054.5
2018-01-08T08:31:30.665Z,1054.49
2018-01-08T08:32:30.647Z,1054.54
2018-01-08T08:33:30.632Z,1054.5
2018-01-08T08:34:30.613Z,1054.43
2018-01-08T08:35:30.592Z,1054.38
2018-01-08T08:36:30.577Z,1054.32
2018-01-08T08:37:30.568Z,1054.33
2018-01-08T08:38:30.541Z,1054.28
2018-01-08T08:39:30.523Z,1054.29
2018-01-08T08:40:30.566Z,1054.26
2018-01-08T08:41:30.483Z,1054.23
2018-01-08T08:42:30.465Z,1054.22
2018-01-08T08:43:30.461Z,1054.18
2018-01-08T08:44:30.429Z,1054.08
2018-01-08T08:45:30.412Z,1054.12
2018-01-08T08:46:30.393Z,1054.05
2018-01-08T08:47:30.374Z,1054.06
2018-01-08T08:48:30.357Z,1054.01
2018-01-08T08:49:30.343Z,1053.91
2018-01-08T08:50:30.321Z,1054.05
2018-01-08T08:51:30.310Z,1053.94
2018-01-08T08:52:30.284Z,1053.97
2018-01-08T08:53:30.296Z,1053.94
2018-01-08T08:54:30.260Z,1053.87
2018-01-08T08:55:30.249Z,1053.89
2018-01-08T08:56:30.213Z,1053.93
2018-01-08T08:57:30.197Z,1053.86
2018-01-08T08:58:30.177Z,1053.82
2018-01-08T08:59:30.162Z,1053.84
2018-01-08T09:00:30.142Z,1053.82
2018-01-08T09:01:30.123Z,1053.79
2018-01-08T09:02:30.106Z,1053.82
2018-01-08T09:03:30.109Z,1053.75
2018-01-08T09:04:30.070Z,1053.67
2018-01-08T09:05:30.075Z,1053.75
2018-01-08T09:06:30.036Z,1053.7
2018-01-08T09:07:30.026Z,1053.66
2018-01-08T09:08:29.999Z,1053.71
2018-01-08T09:09:29.980Z,1053.71
2018-01-08T09:10:29.963Z,1053.64
2018-01-08T09:11:29.945Z,1053.6
2018-01-08T09:12:29.927Z,1053.59
2018-01-08T09:13:29.912Z,1053.53
2018-01-08T09:14:29.936Z,1053.53
2018-01-08T09:15:30.092Z,1053.48
2018-01-08T09:16:29.859Z,1053.44
2018-01-08T09:17:29.860Z,1053.4
2018-01-08T09:18:29.824Z,1053.42
2018-01-08T09:19:29.813Z,1053.36
2018-01-08T09:20:29.785Z,1053.47
2018-01-08T09:21:29.772Z,1053.4
2018-01-08T09:22:29.750Z,1053.37
2018-01-08T09:23:29.738Z,1053.36
2018-01-08T09:24:29.734Z,1053.37
2018-01-08T09:25:29.717Z,1053.35
2018-01-08T09:26:29.692Z,1053.35
2018-01-08T09:27:29.719Z,1053.36
2018-01-08T09:28:29.665Z,1053.39
2018-01-08T09:29:29.646Z,1053.35
2018-01-08T09:30:29.629Z,1053.36
2018-01-08T09:31:29.611Z,1053.41
2018-01-08T09:32:29.590Z,1053.38
2018-01-08T09:33:29.564Z,1053.32
2018-01-08T09:34:29.564Z,1053.4
2018-01-08T09:35:29.526Z,1053.39
2018-01-08T09:36:29.527Z,1053.38
2018-01-08T09:37:29.523Z,1053.3
2018-01-08T09:38:29.470Z,1053.29
2018-01-08T09:39:29.477Z,1053.3
2018-01-08T09:40:29.437Z,1053.33
2018-01-08T09:41:29.419Z,1053.26
2018-01-08T09:42:29.405Z,1053.28
2018-01-08T09:43:29.395Z,1053.28
2018-01-08T09:44:29.367Z,1053.23
2018-01-08T09:45:29.356Z,1053.16
2018-01-08T09:46:29.343Z,1053.22
2018-01-08T09:47:29.335Z,1053.15
2018-01-08T09:48:29.301Z,1053.14
2018-01-08T09:49:29.283Z,1053.12
2018-01-08T09:50:29.263Z,1053.08
2018-01-08T09:51:29.248Z,1053.08
2018-01-08T09:52:29.243Z,1053
2018-01-08T09:53:29.215Z,1053.03
2018-01-08T09:54:29.198Z,1052.92
2018-01-08T09:55:29.178Z,1052.91
2018-01-08T09:56:29.164Z,1052.86
2018-01-08T09:57:29.159Z,1052.89
2018-01-08T09:58:29.127Z,1052.87
2018-01-08T09:59:29.114Z,1052.8
2018-01-08T10:00:29.109Z,1052.79
2018-01-08T10:01:29.075Z,1052.68
2018-01-08T10:02:29.062Z,1052.65
2018-01-08T10:03:29.048Z,1052.6
2018-01-08T10:04:29.027Z,1052.65
2018-01-08T10:05:29.009Z,1052.61
2018-01-08T10:06:28.993Z,1052.58
2018-01-08T10:07:28.974Z,1052.54
2018-01-08T10:08:28.956Z,1052.55
2018-01-08T10:09:28.939Z,1052.48
2018-01-08T10:10:28.927Z,1052.42
2018-01-08T10:11:28.909Z,1052.44
2018-01-08T10:12:28.892Z,1052.38
2018-01-08T10:13:28.876Z,1052.29
2018-01-08T10:14:28.857Z,1052.24
2018-01-08T10:15:28.840Z,1052.19
2018-01-08T10:16:28.824Z,1052.25
2018-01-08T10:17:28.804Z,1052.17
2018-01-08T10:18:28.787Z,1052.19
2018-01-08T10:19:28.771Z,1052.14
2018-01-08T10:20:28.757Z,1052.11
2018-01-08T10:21:28.737Z,1052.02
2018-01-08T10:22:28.720Z,1052
2018-01-08T10:23:28.713Z,1052.02
2018-01-08T10:24:28.689Z,1051.96
2018-01-08T10:25:28.671Z,1051.96
2018-01-08T10:26:28.653Z,1051.92
2018-01-08T10:27:28.637Z,1051.92
2018-01-08T10:28:28.622Z,1051.91
2018-01-08T10:29:28.624Z,1051.87
2018-01-08T10:30:28.589Z,1051.8
2018-01-08T10:31:28.594Z,1051.79
2018-01-08T10:32:28.589Z,1051.85
2018-01-08T10:33:28.557Z,1051.72
2018-01-08T10:34:28.541Z,1051.72
2018-01-08T10:35:28.522Z,1051.6
2018-01-08T10:36:28.500Z,1051.61
2018-01-08T10:37:28.493Z,1051.6
2018-01-08T10:38:28.465Z,1051.56
2018-01-08T10:39:28.442Z,1051.52
2018-01-08T10:40:28.428Z,1051.53
2018-01-08T10:41:28.412Z,1051.59
2018-01-08T10:42:28.396Z,1051.49
2018-01-08T10:43:28.380Z,1051.55
2018-01-08T10:44:28.364Z,1051.46
2018-01-08T10:45:28.344Z,1051.45
2018-01-08T10:46:28.329Z,1051.47
2018-01-08T10:47:28.313Z,1051.43
2018-01-08T10:48:28.311Z,1051.55
2018-01-08T10:49:28.282Z,1051.49
2018-01-08T10:50:28.268Z,1051.5
2018-01-08T10:51:28.252Z,1051.43
2018-01-08T10:52:28.234Z,1051.45
2018-01-08T10:53:28.233Z,1051.37
2018-01-08T10:54:28.202Z,1051.39
2018-01-08T10:55:28.198Z,1051.35
2018-01-08T10:56:28.171Z,1051.24
2018-01-08T10:57:28.154Z,1051.24
2018-01-08T10:58:28.139Z,1051.24
2018-01-08T10:59:28.124Z,1051.38
2018-01-08T11:00:28.106Z,1051.22
2018-01-08T11:01:28.094Z,1051.27
2018-01-08T11:02:28.084Z,1051.2
2018-01-08T11:03:28.062Z,1051.14
2018-01-08T11:04:28.051Z,1051.21
2018-01-08T11:05:28.034Z,1051.12
2018-01-08T11:06:28.016Z,1051.17
2018-01-08T11:07:27.996Z,1051.16
2018-01-08T11:08:27.984Z,1051.13
2018-01-08T11:09:27.965Z,1051.09
2018-01-08T11:10:27.952Z,1051
2018-01-08T11:11:27.933Z,1051.08
2018-01-08T11:12:27.918Z,1051.03
2018-01-08T11:13:27.904Z,1051.03
2018-01-08T11:14:27.892Z,1050.97
2018-01-08T11:15:27.884Z,1051.05
2018-01-08T11:16:27.864Z,1051.05
2018-01-08T11:17:27.852Z,1051.02
2018-01-08T11:18:27.823Z,1050.95
2018-01-08T11:19:27.807Z,1050.94
2018-01-08T11:20:27.792Z,1050.91
2018-01-08T11:21:27.782Z,1050.88
2018-01-08T11:22:27.766Z,1050.87
2018-01-08T11:23:27.744Z,1050.81
2018-01-08T11:24:27.730Z,1050.81
2018-01-08T11:25:27.741Z,1051.06
2018-01-08T11:26:27.698Z,1050.77
2018-01-08T11:27:27.683Z,1050.91
2018-01-08T11:28:27.689Z,1050.74
2018-01-08T11:29:27.655Z,1050.77
2018-01-08T11:30:27.637Z,1050.77
2018-01-08T11:31:27.629Z,1050.72
2018-01-08T11:32:27.616Z,1050.66
2018-01-08T11:33:27.592Z,1050.67
2018-01-08T11:34:27.587Z,1050.66
2018-01-08T11:35:27.560Z,1050.63
2018-01-08T11:36:27.563Z,1050.74
2018-01-08T11:37:27.526Z,1050.73
2018-01-08T11:38:27.535Z,1050.62
2018-01-08T11:39:27.496Z,1050.62
2018-01-08T11:40:27.490Z,1050.8
2018-01-08T11:41:27.465Z,1050.58
2018-01-08T11:42:27.449Z,1050.62
2018-01-08T11:43:27.433Z,1050.57
2018-01-08T11:44:27.418Z,1050.55
2018-01-08T11:45:27.407Z,1050.64
2018-01-08T11:46:27.403Z,1050.57
2018-01-08T11:47:27.377Z,1050.57
2018-01-08T11:48:27.356Z,1050.56
2018-01-08T11:49:27.341Z,1050.56
2018-01-08T11:50:27.325Z,1050.51
2018-01-08T11:51:27.336Z,1050.53
2018-01-08T11:52:27.298Z,1050.54
2018-01-08T11:53:27.291Z,1050.51
2018-01-08T11:54:27.268Z,1050.49
2018-01-08T11:55:27.269Z,1050.46
2018-01-08T11:56:27.239Z,1050.55
2018-01-08T11:57:27.218Z,1050.46
2018-01-08T11:58:27.216Z,1050.41
2018-01-08T11:59:27.221Z,1050.42
2018-01-08T12:00:27.182Z,1050.44
2018-01-08T12:01:27.178Z,1050.46
2018-01-08T12:02:27.141Z,1050.42
2018-01-08T12:03:27.136Z,1050.53
2018-01-08T12:04:27.116Z,1050.45
2018-01-08T12:05:27.302Z,1050.42
2018-01-08T12:06:27.082Z,1050.4
2018-01-08T12:07:27.068Z,1050.36